VIR9912 KJFK-KSAN
Flight info
| Callsign | VIR9912 |
|---|---|
| Flight time | N/A |
| Altitude | 34000 |
| Route | RBV Q430 AIR FYLLS WLDBL GOSSL CIM INW PKE LUCKI1 |
| Aircraft | A35K/H-SDE2E3GHIJ3J4J5LM1ORWXY/LB1D1 |
Departure
| Time | N/A |
|---|---|
| Airport | John F. Kennedy International Airport (KJFK) |
Arrival
| Time | 2026-05-05 20:43 |
|---|---|
| Airport | San Diego International Airport (KSAN) |
| Time | Latitude | Longitude | Altitude | Speed | Heading |
|---|---|---|---|---|---|
| 2026-05-05 19:30 | 34.89984 | -110.88747 | 29940 ft | 424 kts | 245° |
| 2026-05-05 19:30 | 34.87829 | -110.95390 | 29913 ft | 418 kts | 245° |
| 2026-05-05 19:31 | 34.85693 | -111.01957 | 29899 ft | 416 kts | 245° |
| 2026-05-05 19:31 | 34.83920 | -111.08640 | 29882 ft | 419 kts | 250° |
| 2026-05-05 19:32 | 34.82544 | -111.15573 | 29919 ft | 421 kts | 252° |
| 2026-05-05 19:32 | 34.81266 | -111.22490 | 29888 ft | 421 kts | 252° |
| 2026-05-05 19:33 | 34.79956 | -111.29452 | 29897 ft | 421 kts | 252° |
| 2026-05-05 19:33 | 34.78638 | -111.36383 | 29889 ft | 420 kts | 252° |
| 2026-05-05 19:34 | 34.77310 | -111.43326 | 29888 ft | 420 kts | 252° |
| 2026-05-05 19:35 | 34.75315 | -111.53677 | 29901 ft | 420 kts | 252° |
| 2026-05-05 19:35 | 34.73977 | -111.60619 | 29943 ft | 420 kts | 252° |
| 2026-05-05 19:36 | 34.72647 | -111.67504 | 29955 ft | 420 kts | 252° |
| 2026-05-05 19:36 | 34.71302 | -111.74426 | 29959 ft | 420 kts | 252° |
| 2026-05-05 19:37 | 34.70178 | -111.80184 | 29986 ft | 420 kts | 252° |
| 2026-05-05 19:37 | 34.68823 | -111.87113 | 29944 ft | 422 kts | 252° |
| 2026-05-05 19:38 | 34.67462 | -111.94066 | 29926 ft | 423 kts | 252° |
| 2026-05-05 19:38 | 34.66094 | -112.01025 | 29901 ft | 423 kts | 252° |
| 2026-05-05 19:39 | 34.64720 | -112.07981 | 29886 ft | 423 kts | 252° |
| 2026-05-05 19:39 | 34.63350 | -112.14902 | 29943 ft | 424 kts | 252° |
| 2026-05-05 19:40 | 34.61955 | -112.21913 | 29952 ft | 428 kts | 252° |
| 2026-05-05 19:40 | 34.60555 | -112.28936 | 29982 ft | 428 kts | 252° |
| 2026-05-05 19:41 | 34.59150 | -112.35962 | 29999 ft | 428 kts | 252° |
| 2026-05-05 19:41 | 34.57744 | -112.42979 | 29998 ft | 428 kts | 252° |
| 2026-05-05 19:42 | 34.56329 | -112.50005 | 29986 ft | 430 kts | 252° |
| 2026-05-05 19:42 | 34.55622 | -112.53507 | 29840 ft | 432 kts | 252° |
| 2026-05-05 19:42 | 34.54905 | -112.57063 | 29840 ft | 433 kts | 252° |
| 2026-05-05 19:43 | 34.53471 | -112.64147 | 29840 ft | 432 kts | 252° |
| 2026-05-05 19:43 | 34.52032 | -112.71236 | 29841 ft | 433 kts | 252° |
| 2026-05-05 19:44 | 34.50586 | -112.78336 | 29871 ft | 433 kts | 252° |
| 2026-05-05 19:44 | 34.49140 | -112.85410 | 29839 ft | 437 kts | 252° |
| 2026-05-05 19:45 | 34.47669 | -112.92579 | 29834 ft | 438 kts | 252° |
| 2026-05-05 19:45 | 34.46195 | -112.99756 | 29840 ft | 438 kts | 252° |
| 2026-05-05 19:46 | 34.44724 | -113.06887 | 29851 ft | 437 kts | 252° |
| 2026-05-05 19:46 | 34.43237 | -113.14063 | 29848 ft | 441 kts | 252° |
| 2026-05-05 19:47 | 34.41731 | -113.21310 | 29846 ft | 445 kts | 252° |
| 2026-05-05 19:47 | 34.40225 | -113.28541 | 29845 ft | 445 kts | 252° |
| 2026-05-05 19:48 | 34.38711 | -113.35793 | 29843 ft | 445 kts | 252° |
| 2026-05-05 19:48 | 34.37185 | -113.43073 | 29871 ft | 444 kts | 252° |
| 2026-05-05 19:49 | 34.35658 | -113.50325 | 29862 ft | 448 kts | 252° |
| 2026-05-05 19:49 | 34.34111 | -113.57661 | 29857 ft | 448 kts | 252° |
| 2026-05-05 19:50 | 34.32573 | -113.64932 | 29864 ft | 448 kts | 252° |
| 2026-05-05 19:50 | 34.31019 | -113.72249 | 29861 ft | 448 kts | 252° |
| 2026-05-05 19:51 | 34.29465 | -113.79542 | 29866 ft | 452 kts | 252° |
| 2026-05-05 19:51 | 34.27877 | -113.86966 | 29865 ft | 455 kts | 252° |
| 2026-05-05 19:52 | 34.26296 | -113.94347 | 29864 ft | 455 kts | 252° |
| 2026-05-05 19:52 | 34.24702 | -114.01760 | 29867 ft | 455 kts | 252° |
| 2026-05-05 19:53 | 34.23103 | -114.09174 | 29871 ft | 456 kts | 253° |
| 2026-05-05 19:53 | 34.21496 | -114.16599 | 29871 ft | 460 kts | 252° |
| 2026-05-05 19:54 | 34.19869 | -114.24093 | 29866 ft | 460 kts | 252° |
| 2026-05-05 19:54 | 34.18246 | -114.31549 | 29870 ft | 460 kts | 252° |
| 2026-05-05 19:55 | 34.16608 | -114.39047 | 29897 ft | 460 kts | 253° |
| 2026-05-05 19:55 | 34.14972 | -114.46510 | 29877 ft | 463 kts | 253° |
| 2026-05-05 19:56 | 34.13316 | -114.54041 | 29884 ft | 463 kts | 253° |
| 2026-05-05 19:56 | 34.11668 | -114.61512 | 29894 ft | 463 kts | 253° |
| 2026-05-05 19:57 | 34.09768 | -114.68937 | 29887 ft | 461 kts | 245° |
| 2026-05-05 19:57 | 34.06868 | -114.75791 | 29892 ft | 460 kts | 241° |
| 2026-05-05 19:58 | 34.03838 | -114.82612 | 29890 ft | 461 kts | 241° |
| 2026-05-05 19:58 | 34.00805 | -114.89448 | 29899 ft | 461 kts | 241° |
| 2026-05-05 19:59 | 33.97795 | -114.96232 | 29909 ft | 461 kts | 241° |
| 2026-05-05 19:59 | 33.94778 | -115.03020 | 29911 ft | 462 kts | 241° |
| 2026-05-05 20:00 | 33.91712 | -115.09865 | 29906 ft | 465 kts | 241° |
| 2026-05-05 20:00 | 33.88627 | -115.16735 | 29906 ft | 465 kts | 241° |
| 2026-05-05 20:01 | 33.85562 | -115.23556 | 29909 ft | 465 kts | 241° |
| 2026-05-05 20:01 | 33.82472 | -115.30418 | 29920 ft | 466 kts | 241° |
| 2026-05-05 20:02 | 33.79390 | -115.37248 | 29917 ft | 468 kts | 241° |
| 2026-05-05 20:02 | 33.76051 | -115.44006 | 29925 ft | 469 kts | 238° |
| 2026-05-05 20:03 | 33.72634 | -115.50624 | 29917 ft | 465 kts | 238° |
| 2026-05-05 20:03 | 33.69222 | -115.57207 | 29925 ft | 462 kts | 238° |
| 2026-05-05 20:04 | 33.65840 | -115.63723 | 29942 ft | 461 kts | 238° |
| 2026-05-05 20:04 | 33.62426 | -115.70287 | 29927 ft | 464 kts | 238° |
| 2026-05-05 20:05 | 33.59010 | -115.76834 | 29932 ft | 465 kts | 238° |
| 2026-05-05 20:05 | 33.55565 | -115.83431 | 29927 ft | 465 kts | 238° |
| 2026-05-05 20:06 | 33.52117 | -115.90027 | 29928 ft | 465 kts | 238° |
| 2026-05-05 20:06 | 33.48691 | -115.96570 | 29937 ft | 466 kts | 238° |
| 2026-05-05 20:07 | 33.45225 | -116.03181 | 29938 ft | 469 kts | 238° |
| 2026-05-05 20:07 | 33.41743 | -116.09807 | 29938 ft | 469 kts | 238° |
| 2026-05-05 20:08 | 33.38281 | -116.16383 | 29945 ft | 469 kts | 238° |
| 2026-05-05 20:08 | 33.34767 | -116.22985 | 29950 ft | 469 kts | 234° |
| 2026-05-05 20:08 | 33.32514 | -116.25808 | 29954 ft | 472 kts | 220° |
| 2026-05-05 20:09 | 33.29690 | -116.27828 | 29986 ft | 474 kts | 209° |
| 2026-05-05 20:09 | 33.23695 | -116.31077 | 29976 ft | 475 kts | 208° |
| 2026-05-05 20:10 | 33.17719 | -116.34441 | 29980 ft | 474 kts | 209° |
| 2026-05-05 20:10 | 33.11812 | -116.37865 | 29972 ft | 473 kts | 211° |
| 2026-05-05 20:10 | 33.08994 | -116.39799 | 29783 ft | 460 kts | 216° |
| 2026-05-05 20:11 | 33.06381 | -116.41920 | 29518 ft | 448 kts | 218° |
| 2026-05-05 20:11 | 33.03863 | -116.44051 | 29196 ft | 437 kts | 218° |
| 2026-05-05 20:11 | 33.01461 | -116.46097 | 28707 ft | 421 kts | 218° |
| 2026-05-05 20:11 | 32.99111 | -116.48105 | 27943 ft | 411 kts | 219° |
| 2026-05-05 20:12 | 32.96796 | -116.50088 | 26958 ft | 409 kts | 218° |
| 2026-05-05 20:12 | 32.94486 | -116.52067 | 26002 ft | 407 kts | 218° |
| 2026-05-05 20:12 | 32.92190 | -116.54032 | 25065 ft | 405 kts | 218° |
| 2026-05-05 20:12 | 32.89938 | -116.55956 | 24261 ft | 401 kts | 218° |
| 2026-05-05 20:13 | 32.87678 | -116.57887 | 23349 ft | 400 kts | 218° |
| 2026-05-05 20:13 | 32.85405 | -116.59827 | 22748 ft | 389 kts | 218° |
| 2026-05-05 20:13 | 32.83288 | -116.61664 | 22351 ft | 373 kts | 220° |
| 2026-05-05 20:13 | 32.81326 | -116.63627 | 22079 ft | 364 kts | 223° |
| 2026-05-05 20:14 | 32.79425 | -116.65598 | 21697 ft | 359 kts | 223° |
| 2026-05-05 20:14 | 32.77571 | -116.67567 | 21283 ft | 353 kts | 229° |
| 2026-05-05 20:14 | 32.76204 | -116.69956 | 20838 ft | 347 kts | 242° |
| 2026-05-05 20:14 | 32.75057 | -116.72461 | 20470 ft | 342 kts | 243° |
| 2026-05-05 20:15 | 32.73942 | -116.74909 | 20082 ft | 339 kts | 243° |
| 2026-05-05 20:15 | 32.72815 | -116.77350 | 19774 ft | 334 kts | 243° |
| 2026-05-05 20:15 | 32.71693 | -116.79748 | 19413 ft | 329 kts | 242° |
| 2026-05-05 20:15 | 32.70643 | -116.82158 | 18949 ft | 328 kts | 249° |
| 2026-05-05 20:16 | 32.69813 | -116.84669 | 18558 ft | 324 kts | 251° |
| 2026-05-05 20:16 | 32.69073 | -116.87130 | 18280 ft | 308 kts | 254° |
| 2026-05-05 20:16 | 32.68850 | -116.89563 | 17704 ft | 298 kts | 272° |
| 2026-05-05 20:16 | 32.68961 | -116.91811 | 17120 ft | 294 kts | 274° |
| 2026-05-05 20:17 | 32.69121 | -116.94218 | 16491 ft | 290 kts | 274° |
| 2026-05-05 20:17 | 32.69282 | -116.96601 | 15831 ft | 288 kts | 276° |
| 2026-05-05 20:17 | 32.69710 | -116.98948 | 14985 ft | 293 kts | 290° |
| 2026-05-05 20:17 | 32.70684 | -117.01032 | 14254 ft | 293 kts | 308° |
| 2026-05-05 20:18 | 32.72242 | -117.02581 | 13496 ft | 295 kts | 330° |
| 2026-05-05 20:18 | 32.74212 | -117.03265 | 12772 ft | 297 kts | 354° |
| 2026-05-05 20:18 | 32.76262 | -117.02935 | 12068 ft | 301 kts | 18° |
| 2026-05-05 20:18 | 32.78051 | -117.01623 | 11322 ft | 306 kts | 42° |
| 2026-05-05 20:19 | 32.79239 | -116.99535 | 10665 ft | 308 kts | 67° |
| 2026-05-05 20:19 | 32.79623 | -116.97047 | 9961 ft | 307 kts | 92° |
| 2026-05-05 20:19 | 32.79381 | -116.95399 | 9537 ft | 302 kts | 110° |
| 2026-05-05 20:19 | 32.77975 | -116.92726 | 9118 ft | 277 kts | 139° |
| 2026-05-05 20:20 | 32.76438 | -116.91473 | 8672 ft | 262 kts | 158° |
| 2026-05-05 20:20 | 32.74771 | -116.90649 | 8196 ft | 257 kts | 163° |
| 2026-05-05 20:20 | 32.73664 | -116.90156 | 7878 ft | 255 kts | 162° |
| 2026-05-05 20:20 | 32.71984 | -116.89595 | 7470 ft | 246 kts | 175° |
| 2026-05-05 20:21 | 32.69810 | -116.89698 | 6970 ft | 230 kts | 198° |
| 2026-05-05 20:21 | 32.68819 | -116.90122 | 6668 ft | 226 kts | 209° |
| 2026-05-05 20:21 | 32.67536 | -116.91157 | 6180 ft | 221 kts | 225° |
| 2026-05-05 20:21 | 32.66582 | -116.92572 | 5714 ft | 218 kts | 241° |
| 2026-05-05 20:22 | 32.66012 | -116.94229 | 5245 ft | 217 kts | 257° |
| 2026-05-05 20:22 | 32.65867 | -116.95994 | 4815 ft | 213 kts | 273° |
| 2026-05-05 20:22 | 32.66132 | -116.97696 | 4383 ft | 209 kts | 287° |
| 2026-05-05 20:22 | 32.66766 | -116.99245 | 3880 ft | 210 kts | 301° |
| 2026-05-05 20:23 | 32.67608 | -117.00661 | 3448 ft | 208 kts | 305° |
| 2026-05-05 20:23 | 32.68440 | -117.01980 | 3213 ft | 195 kts | 305° |
| 2026-05-05 20:23 | 32.69212 | -117.03240 | 2850 ft | 183 kts | 302° |
| 2026-05-05 20:23 | 32.69807 | -117.04551 | 2511 ft | 178 kts | 290° |
| 2026-05-05 20:24 | 32.70192 | -117.05896 | 2295 ft | 157 kts | 285° |
| 2026-05-05 20:24 | 32.70506 | -117.07141 | 1967 ft | 158 kts | 285° |
| 2026-05-05 20:24 | 32.70818 | -117.08371 | 1719 ft | 150 kts | 284° |
| 2026-05-05 20:24 | 32.71104 | -117.09566 | 1445 ft | 148 kts | 284° |
| 2026-05-05 20:25 | 32.71356 | -117.10736 | 1297 ft | 144 kts | 282° |
| 2026-05-05 20:25 | 32.71628 | -117.11861 | 1149 ft | 142 kts | 287° |
| 2026-05-05 20:25 | 32.71915 | -117.12976 | 1043 ft | 145 kts | 286° |
| 2026-05-05 20:25 | 32.72179 | -117.14135 | 835 ft | 144 kts | 283° |
| 2026-05-05 20:26 | 32.72447 | -117.15255 | 681 ft | 140 kts | 287° |
| 2026-05-05 20:26 | 32.72731 | -117.16371 | 387 ft | 141 kts | 284° |
| 2026-05-05 20:26 | 32.72999 | -117.17507 | 118 ft | 142 kts | 285° |
| 2026-05-05 20:26 | 32.73268 | -117.18606 | 29 ft | 130 kts | 285° |
| 2026-05-05 20:27 | 32.73507 | -117.19552 | 57 ft | 126 kts | 288° |
| 2026-05-05 20:27 | 32.73786 | -117.20693 | 503 ft | 161 kts | 288° |
| 2026-05-05 20:27 | 32.74129 | -117.22079 | 1338 ft | 187 kts | 286° |
| 2026-05-05 20:27 | 32.74543 | -117.23731 | 2076 ft | 226 kts | 286° |
| 2026-05-05 20:28 | 32.75007 | -117.25591 | 2431 ft | 242 kts | 286° |
| 2026-05-05 20:28 | 32.75483 | -117.27499 | 2494 ft | 245 kts | 286° |
| 2026-05-05 20:28 | 32.75974 | -117.29470 | 2480 ft | 247 kts | 286° |
| 2026-05-05 20:28 | 32.76456 | -117.31400 | 2477 ft | 246 kts | 286° |
| 2026-05-05 20:29 | 32.77091 | -117.33283 | 2474 ft | 247 kts | 302° |
| 2026-05-05 20:29 | 32.78338 | -117.34679 | 2477 ft | 250 kts | 329° |
| 2026-05-05 20:29 | 32.80022 | -117.35215 | 2493 ft | 254 kts | 354° |
| 2026-05-05 20:29 | 32.81799 | -117.35188 | 2489 ft | 257 kts | 0° |
| 2026-05-05 20:30 | 32.83590 | -117.35049 | 2565 ft | 258 kts | 1° |
| 2026-05-05 20:30 | 32.85435 | -117.34897 | 2829 ft | 273 kts | 1° |
| 2026-05-05 20:30 | 32.87317 | -117.34746 | 3688 ft | 270 kts | 0° |
| 2026-05-05 20:30 | 32.89167 | -117.34603 | 4678 ft | 265 kts | 1° |
| 2026-05-05 20:31 | 32.91025 | -117.34460 | 5422 ft | 266 kts | 1° |
| 2026-05-05 20:31 | 32.92893 | -117.34327 | 5857 ft | 269 kts | 1° |
| 2026-05-05 20:31 | 32.94771 | -117.34187 | 5970 ft | 271 kts | 1° |
| 2026-05-05 20:31 | 32.96634 | -117.34051 | 5969 ft | 272 kts | 1° |
| 2026-05-05 20:32 | 32.98520 | -117.33803 | 5961 ft | 275 kts | 13° |
| 2026-05-05 20:32 | 33.00225 | -117.32750 | 5965 ft | 278 kts | 39° |
| 2026-05-05 20:32 | 33.01361 | -117.30919 | 5963 ft | 281 kts | 66° |
| 2026-05-05 20:32 | 33.01720 | -117.28650 | 5964 ft | 281 kts | 93° |
| 2026-05-05 20:33 | 33.01212 | -117.26427 | 5963 ft | 279 kts | 120° |
| 2026-05-05 20:33 | 33.00113 | -117.24504 | 5968 ft | 282 kts | 129° |
| 2026-05-05 20:33 | 32.98878 | -117.22679 | 5958 ft | 282 kts | 131° |
| 2026-05-05 20:33 | 32.97480 | -117.21070 | 5966 ft | 278 kts | 142° |
| 2026-05-05 20:34 | 32.95938 | -117.19682 | 5970 ft | 278 kts | 147° |
| 2026-05-05 20:34 | 32.94333 | -117.18397 | 5968 ft | 277 kts | 149° |
| 2026-05-05 20:34 | 32.92701 | -117.17178 | 5958 ft | 276 kts | 150° |
| 2026-05-05 20:34 | 32.91051 | -117.15985 | 5965 ft | 277 kts | 150° |
| 2026-05-05 20:35 | 32.89419 | -117.14814 | 5962 ft | 277 kts | 151° |
| 2026-05-05 20:35 | 32.87757 | -117.13622 | 5966 ft | 279 kts | 150° |
| 2026-05-05 20:35 | 32.86097 | -117.12424 | 5966 ft | 278 kts | 151° |
| 2026-05-05 20:35 | 32.84450 | -117.11227 | 5965 ft | 277 kts | 150° |
| 2026-05-05 20:36 | 32.82808 | -117.10029 | 5962 ft | 277 kts | 150° |
| 2026-05-05 20:36 | 32.81197 | -117.08851 | 5958 ft | 264 kts | 149° |
| 2026-05-05 20:36 | 32.79674 | -117.07733 | 5962 ft | 249 kts | 150° |
| 2026-05-05 20:36 | 32.78244 | -117.06678 | 5960 ft | 233 kts | 151° |
| 2026-05-05 20:37 | 32.76917 | -117.05712 | 5935 ft | 216 kts | 150° |
| 2026-05-05 20:37 | 32.75685 | -117.04813 | 5676 ft | 207 kts | 151° |
| 2026-05-05 20:37 | 32.74615 | -117.03703 | 5295 ft | 207 kts | 124° |
| 2026-05-05 20:37 | 32.74079 | -117.02115 | 4881 ft | 207 kts | 105° |
| 2026-05-05 20:38 | 32.73754 | -117.00453 | 4422 ft | 204 kts | 104° |
| 2026-05-05 20:38 | 32.73210 | -116.98910 | 3868 ft | 205 kts | 131° |
| 2026-05-05 20:38 | 32.72073 | -116.98014 | 3428 ft | 192 kts | 172° |
| 2026-05-05 20:38 | 32.70800 | -116.98151 | 3119 ft | 181 kts | 210° |
| 2026-05-05 20:39 | 32.69825 | -116.99054 | 2845 ft | 178 kts | 227° |
| 2026-05-05 20:39 | 32.69121 | -117.00218 | 2620 ft | 175 kts | 246° |
| 2026-05-05 20:39 | 32.68980 | -117.01598 | 2437 ft | 168 kts | 281° |
| 2026-05-05 20:39 | 32.69342 | -117.02921 | 2318 ft | 169 kts | 289° |
| 2026-05-05 20:40 | 32.69757 | -117.04212 | 2398 ft | 168 kts | 286° |
| 2026-05-05 20:40 | 32.70097 | -117.05536 | 2460 ft | 167 kts | 285° |
| 2026-05-05 20:40 | 32.70425 | -117.06886 | 2462 ft | 173 kts | 284° |
| 2026-05-05 20:40 | 32.70753 | -117.08269 | 2239 ft | 173 kts | 284° |
| 2026-05-05 20:41 | 32.71061 | -117.09641 | 1924 ft | 170 kts | 284° |
| 2026-05-05 20:41 | 32.71364 | -117.10959 | 1620 ft | 165 kts | 285° |
| 2026-05-05 20:41 | 32.71706 | -117.12217 | 1379 ft | 155 kts | 288° |
| 2026-05-05 20:41 | 32.72035 | -117.13399 | 1096 ft | 145 kts | 288° |
| 2026-05-05 20:42 | 32.72297 | -117.14522 | 826 ft | 137 kts | 284° |
| 2026-05-05 20:42 | 32.72549 | -117.15599 | 581 ft | 135 kts | 286° |
| 2026-05-05 20:42 | 32.72807 | -117.16683 | 353 ft | 138 kts | 287° |
| 2026-05-05 20:42 | 32.73072 | -117.17799 | 96 ft | 140 kts | 286° |
| 2026-05-05 20:43 | 32.73332 | -117.18863 | 27 ft | 120 kts | 288° |
| 2026-05-05 20:43 | 32.73522 | -117.19647 | 31 ft | 77 kts | 286° |
| 2026-05-05 20:43 | 32.73626 | -117.20080 | 29 ft | 33 kts | 285° |
| 2026-05-05 20:43 | 32.73678 | -117.20293 | 30 ft | 22 kts | 285° |
| 2026-05-05 20:44 | 32.73654 | -117.20405 | 28 ft | 14 kts | 213° |
| 2026-05-05 20:44 | 32.73571 | -117.20442 | 27 ft | 13 kts | 206° |
| 2026-05-05 20:44 | 32.73512 | -117.20514 | 26 ft | 12 kts | 224° |
| 2026-05-05 20:44 | 32.73438 | -117.20553 | 29 ft | 12 kts | 185° |
| 2026-05-05 20:45 | 32.73339 | -117.20567 | 28 ft | 2 kts | 240° |
| 2026-05-05 20:45 | 32.73334 | -117.20601 | 28 ft | 11 kts | 261° |
| 2026-05-05 20:45 | 32.73302 | -117.20694 | 27 ft | 12 kts | 204° |
| 2026-05-05 20:46 | 32.73263 | -117.20708 | 27 ft | 0 kts | 193° |